»·PEaware :: N181DJ KIGM-KLAS

N181DJ :: KIGM-KLAS

FLIGHT INFORMATION

Flight Status: Arrived
Operator: Privately registered:
United States
More flights under this callsign
Pilot: Brian H. (29287)
Aircraft: PIPER PA-28 CHEROKEE ARCHER
(PA28)
More flights by this aircraft type
Origin: KIGM Kingman
United States
Destination: KLAS McCarran Intl
United States
More flights between these airports :: More routes between these airports
Route: PRFUM V105 LAS
File this flight plan on PilotEdge
Remarks:
Altitude:
(Current/Filed)
12,000ft
Speed:
(Current/Filed)
110kts
Departed: 07-Oct-20 02:43 PM
Arrived: 07-Oct-20 03:39 PM
Distance/Time
Traveled:
78nm/0:56
Distance/Time
To Go:
Arrived

Flight Plot

Page will automatically refresh every two minutes.

Flight plan parsing failed; only flown route is shown


Map Options




Map Legend


Flown Route
Filed Route
Departure Airport
Arrival Airport
Navaid (VOR, NDB)
Fix

Horizontal Profiles

Position Reports

Time Latitude Longitude Heading Altitude Ground
Speed
07-Oct-20 14:30 35.259539 -113.942033 226 3393ft 0kts
07-Oct-20 14:31 35.259539 -113.942033 226 3393ft 0kts
07-Oct-20 14:32 35.259539 -113.942033 226 3393ft 0kts
07-Oct-20 14:33 35.259539 -113.942033 226 3393ft 0kts
07-Oct-20 14:34 35.259539 -113.942033 226 3393ft 0kts
07-Oct-20 14:35 35.259539 -113.942033 226 3393ft 0kts
07-Oct-20 14:36 35.259539 -113.942033 226 3393ft 0kts
07-Oct-20 14:37 35.259539 -113.942033 226 3393ft 0kts
07-Oct-20 14:38 35.259533 -113.942040 225 3393ft 0kts
07-Oct-20 14:39 35.259655 -113.940660 45 3396ft 14kts
07-Oct-20 14:40 35.263636 -113.935796 47 3389ft 25kts
07-Oct-20 14:41 35.264636 -113.932051 196 3391ft 7kts
07-Oct-20 14:42 35.251150 -113.949427 223 3761ft 91kts
07-Oct-20 14:43 35.249538 -113.971010 335 4650ft 68kts
07-Oct-20 14:44 35.267691 -113.975747 350 5288ft 66kts
07-Oct-20 14:45 35.287755 -113.980065 350 5679ft 97kts
07-Oct-20 14:46 35.319928 -113.986613 353 5718ft 128kts
07-Oct-20 14:47 35.353487 -113.983769 8 6156ft 112kts
07-Oct-20 14:48 35.383641 -113.978272 8 6788ft 102kts
07-Oct-20 14:49 35.408086 -113.973807 9 7594ft 79kts
07-Oct-20 14:50 35.431934 -113.969019 9 8082ft 91kts
07-Oct-20 14:51 35.457581 -113.963826 9 8584ft 94kts
07-Oct-20 14:52 35.483678 -113.958530 9 9078ft 95kts
07-Oct-20 14:53 35.509140 -113.956988 318 9567ft 92kts
07-Oct-20 14:54 35.523825 -113.981845 304 10056ft 87kts
07-Oct-20 14:55 35.537604 -114.006421 304 10420ft 96kts
07-Oct-20 14:56 35.554703 -114.036771 304 10595ft 111kts
07-Oct-20 14:57 35.572259 -114.067908 304 10903ft 108kts
07-Oct-20 14:58 35.589013 -114.097631 304 11253ft 103kts
07-Oct-20 14:59 35.605190 -114.126341 304 11604ft 100kts
07-Oct-20 15:00 35.620791 -114.154170 303 11955ft 96kts
07-Oct-20 15:01 35.636659 -114.184485 303 12018ft 116kts
07-Oct-20 15:02 35.654976 -114.219446 303 12015ft 124kts
07-Oct-20 15:03 35.673838 -114.255423 303 12015ft 125kts
07-Oct-20 15:04 35.692883 -114.291735 303 12015ft 125kts
07-Oct-20 15:05 35.711863 -114.327913 303 12015ft 126kts
07-Oct-20 15:06 35.730971 -114.364323 303 12015ft 126kts
07-Oct-20 15:07 35.750000 -114.400570 303 12015ft 126kts
07-Oct-20 15:08 35.769085 -114.436912 303 12015ft 126kts
07-Oct-20 15:09 35.788185 -114.473273 303 12015ft 126kts
07-Oct-20 15:10 35.807277 -114.509606 303 12015ft 126kts
07-Oct-20 15:11 35.826486 -114.545901 305 12015ft 126kts
07-Oct-20 15:12 35.846628 -114.581458 305 12015ft 126kts
07-Oct-20 15:13 35.865832 -114.617740 302 12015ft 126kts
07-Oct-20 15:14 35.884926 -114.654289 302 12015ft 126kts
07-Oct-20 15:15 35.904087 -114.690698 302 12015ft 126kts
07-Oct-20 15:16 35.923268 -114.727131 302 12015ft 126kts
07-Oct-20 15:17 35.942439 -114.763535 303 12015ft 126kts
07-Oct-20 15:18 35.965859 -114.793969 337 12019ft 125kts
07-Oct-20 15:20 36.002623 -114.811240 339 11300ft 154kts
07-Oct-20 15:21 36.043674 -114.829647 339 10418ft 157kts
07-Oct-20 15:22 36.085131 -114.848229 340 9530ft 157kts
07-Oct-20 15:23 36.124078 -114.865623 340 8635ft 144kts
07-Oct-20 15:24 36.161669 -114.882406 340 7750ft 143kts
07-Oct-20 15:25 36.199247 -114.899174 340 6863ft 143kts
07-Oct-20 15:26 36.236779 -114.915912 340 6001ft 141kts
07-Oct-20 15:27 36.269916 -114.930700 340 6039ft 119kts
07-Oct-20 15:28 36.300862 -114.944514 340 6040ft 117kts
07-Oct-20 15:29 36.330476 -114.960289 304 6038ft 116kts
07-Oct-20 15:30 36.312815 -114.984537 190 6039ft 116kts
07-Oct-20 15:31 36.283858 -114.996711 221 6040ft 116kts
07-Oct-20 15:32 36.257952 -115.021011 216 6039ft 116kts
07-Oct-20 15:33 36.230315 -115.047606 208 5283ft 149kts
07-Oct-20 15:34 36.199066 -115.069250 214 4598ft 123kts
07-Oct-20 15:35 36.171652 -115.093546 217 3868ft 121kts
07-Oct-20 15:35 36.149816 -115.113417 217 3401ft 105kts
07-Oct-20 15:37 36.123715 -115.136420 216 2721ft 94kts
07-Oct-20 15:37 36.106967 -115.151553 211 2355ft 92kts
07-Oct-20 15:39 36.089318 -115.163258 298 2129ft 23kts
07-Oct-20 15:39 36.089434 -115.163605 293 2130ft 0kts
07-Oct-20 15:40 36.091593 -115.164671 318 2127ft 5kts

Navigation Log

Ident Type
Flight plan parsing failed, navigation log unavailable